Time;durP1;ratioP1;P1;durP2;ratioP2;P2;SDS_P1;SDS_P2;PMS_P1;PMS_P2;Temp;Humidity;BMP_temperature;BMP_pressure;BME280_temperature;BME280_humidity;BME280_pressure;Samples;Min_cycle;Max_cycle;Signal;HPM_P1;HPM_P2
2023/09/04 00:00:00;;;;;;;6.43;3.80;;;17.60;98.30;;;;;;4990954;28;20472;-67
2023/09/04 00:02:27;;;;;;;7.70;4.70;;;17.40;98.70;;;;;;4986154;28;20499;-67
2023/09/04 00:04:56;;;;;;;7.80;4.73;;;17.20;99.50;;;;;;4990209;28;20489;-67
2023/09/04 00:07:23;;;;;;;9.20;5.30;;;17.10;99.50;;;;;;4993372;28;20486;-67
2023/09/04 00:09:51;;;;;;;11.27;6.27;;;16.90;99.90;;;;;;4983276;28;20490;-67
2023/09/04 00:12:18;;;;;;;10.67;6.37;;;16.90;99.90;;;;;;4986431;28;20512;-65
2023/09/04 00:14:44;;;;;;;8.47;5.00;;;16.90;99.90;;;;;;4990077;28;22012;-65
2023/09/04 00:17:11;;;;;;;8.87;5.80;;;16.90;99.90;;;;;;4998108;28;20494;-66
2023/09/04 00:19:38;;;;;;;9.73;5.67;;;17.00;99.90;;;;;;4983276;28;20505;-66
2023/09/04 00:22:05;;;;;;;7.60;5.57;;;17.10;99.90;;;;;;4983383;28;20478;-66
2023/09/04 00:24:32;;;;;;;9.43;5.40;;;17.10;99.90;;;;;;4998160;28;20484;-65
2023/09/04 00:27:00;;;;;;;10.43;6.77;;;17.20;99.90;;;;;;4983561;28;20474;-65
2023/09/04 00:29:27;;;;;;;7.60;5.03;;;17.30;99.90;;;;;;4991826;28;20473;-65
2023/09/04 00:31:54;;;;;;;10.30;6.20;;;17.30;99.90;;;;;;4990665;28;20487;-64
2023/09/04 00:34:21;;;;;;;11.63;6.77;;;17.30;99.90;;;;;;4986593;28;20561;-65
2023/09/04 00:36:48;;;;;;;8.73;5.80;;;17.30;99.90;;;;;;4982928;28;20566;-66
2023/09/04 00:39:17;;;;;;;9.13;6.50;;;17.30;99.90;;;;;;4997525;28;20573;-66
2023/09/04 00:41:43;;;;;;;9.90;6.43;;;17.30;99.90;;;;;;4990243;28;21072;-66
2023/09/04 00:44:12;;;;;;;12.50;6.43;;;17.30;99.90;;;;;;4991636;28;20871;-66
2023/09/04 00:46:39;;;;;;;5.90;4.47;;;17.40;99.80;;;;;;4998817;28;20501;-66
2023/09/04 00:49:06;;;;;;;5.70;3.70;;;17.30;99.10;;;;;;4991087;28;20474;-65
2023/09/04 00:51:33;;;;;;;4.60;3.40;;;17.10;98.80;;;;;;4991761;28;20482;-66
2023/09/04 00:54:00;;;;;;;9.33;3.83;;;16.90;98.80;;;;;;4987951;28;20884;-66
2023/09/04 00:56:27;;;;;;;8.67;5.40;;;16.70;98.90;;;;;;5001414;28;21094;-65
2023/09/04 00:58:54;;;;;;;9.17;6.00;;;16.50;99.60;;;;;;4981944;28;20981;-66
2023/09/04 01:01:22;;;;;;;16.87;6.00;;;16.50;99.90;;;;;;4988987;28;20524;-66
2023/09/04 01:03:49;;;;;;;8.77;5.27;;;16.50;99.90;;;;;;4994523;28;20496;-65
2023/09/04 01:06:16;;;;;;;10.87;6.83;;;16.50;99.90;;;;;;4991181;28;20490;-65
2023/09/04 01:08:43;;;;;;;8.70;5.50;;;16.50;99.90;;;;;;4989608;28;20488;-66
2023/09/04 01:11:16;;;;;;;11.63;6.60;;;16.40;99.90;;;;;;4985983;28;20490;-66
2023/09/04 01:13:47;;;;;;;8.77;5.90;;;16.50;99.90;;;;;;4978713;28;21046;-65
2023/09/04 01:16:15;;;;;;;8.43;5.53;;;16.50;99.90;;;;;;5014510;28;20777;-65
2023/09/04 01:18:44;;;;;;;10.90;6.10;;;16.50;99.90;;;;;;4991741;28;20491;-65
2023/09/04 01:21:12;;;;;;;8.70;5.40;;;16.60;99.90;;;;;;4992609;28;20486;-65
2023/09/04 01:23:39;;;;;;;7.70;4.53;;;16.70;99.90;;;;;;4980160;28;20500;-65
2023/09/04 01:26:13;;;;;;;7.43;4.33;;;16.60;99.90;;;;;;5007563;28;20860;-65
2023/09/04 01:28:49;;;;;;;8.43;4.70;;;16.50;99.50;;;;;;4989261;28;20488;-65
2023/09/04 01:31:23;;;;;;;10.23;5.27;;;16.60;99.90;;;;;;4992937;28;21030;-65
2023/09/04 01:33:53;;;;;;;14.27;7.00;;;16.60;99.90;;;;;;4992828;28;20493;-65
2023/09/04 01:36:26;;;;;;;20.90;7.80;;;16.60;99.90;;;;;;4990391;28;20488;-65
2023/09/04 01:38:53;;;;;;;8.47;6.03;;;16.60;99.90;;;;;;4995770;28;20847;-65
2023/09/04 01:41:20;;;;;;;11.60;6.90;;;16.70;99.90;;;;;;4984112;28;20482;-65
2023/09/04 01:43:47;;;;;;;5.07;4.30;;;16.60;99.80;;;;;;4988097;28;20493;-66
2023/09/04 01:46:14;;;;;;;7.63;5.20;;;16.60;99.50;;;;;;5002561;28;21195;-66
2023/09/04 01:48:41;;;;;;;18.80;8.23;;;16.50;99.80;;;;;;4997186;28;20490;-65
2023/09/04 01:51:08;;;;;;;10.73;6.07;;;16.50;99.90;;;;;;4991346;28;20531;-66
2023/09/04 01:53:36;;;;;;;18.23;8.60;;;16.40;99.90;;;;;;4985111;28;22492;-66
2023/09/04 01:56:03;;;;;;;12.23;7.73;;;16.40;99.90;;;;;;4983757;28;20724;-66
2023/09/04 01:58:30;;;;;;;15.30;8.20;;;16.40;99.90;;;;;;4970386;28;20492;-66
2023/09/04 02:00:57;;;;;;;13.07;7.83;;;16.40;99.90;;;;;;5006252;28;20491;-66
2023/09/04 02:03:23;;;;;;;11.17;7.23;;;16.50;99.90;;;;;;4984765;28;20493;-66
2023/09/04 02:05:50;;;;;;;11.83;7.77;;;16.50;99.90;;;;;;4994353;28;20946;-65
2023/09/04 02:08:17;;;;;;;14.43;6.40;;;16.50;99.90;;;;;;4982474;28;20487;-66
2023/09/04 02:10:45;;;;;;;12.27;7.07;;;16.50;99.90;;;;;;4991367;28;20989;-65
2023/09/04 02:13:12;;;;;;;10.40;5.27;;;16.50;99.90;;;;;;4984211;28;20755;-66
2023/09/04 02:15:40;;;;;;;17.20;7.10;;;16.40;99.90;;;;;;4998545;28;20944;-65
2023/09/04 02:18:07;;;;;;;16.50;6.87;;;16.40;99.90;;;;;;4985873;28;20482;-65
2023/09/04 02:20:34;;;;;;;13.73;7.70;;;16.50;99.90;;;;;;4981426;28;20495;-65
2023/09/04 02:23:01;;;;;;;12.60;6.47;;;16.50;99.90;;;;;;4990458;28;20482;-66
2023/09/04 02:25:28;;;;;;;8.87;6.20;;;16.50;99.90;;;;;;4993536;28;21305;-66
2023/09/04 02:27:56;;;;;;;9.30;6.30;;;16.60;99.90;;;;;;4983211;28;20543;-66
2023/09/04 02:30:23;;;;;;;11.10;7.17;;;16.60;99.90;;;;;;5002558;28;20484;-65
2023/09/04 02:32:50;;;;;;;9.40;6.57;;;16.70;99.90;;;;;;4987891;28;20490;-65
2023/09/04 02:35:17;;;;;;;12.57;6.40;;;16.70;99.90;;;;;;4998740;28;21525;-65
2023/09/04 02:37:44;;;;;;;9.33;6.90;;;16.70;99.90;;;;;;4986297;28;20597;-65
2023/09/04 02:40:12;;;;;;;11.03;6.57;;;16.80;99.90;;;;;;4982108;28;20481;-65
2023/09/04 02:42:39;;;;;;;10.13;6.03;;;16.80;99.90;;;;;;4976795;28;20574;-65
2023/09/04 02:45:09;;;;;;;10.63;5.87;;;16.90;99.90;;;;;;4989591;28;20933;-65
2023/09/04 02:47:37;;;;;;;8.73;6.40;;;16.90;99.90;;;;;;4996235;28;20489;-65
2023/09/04 02:50:05;;;;;;;8.47;5.90;;;16.90;99.90;;;;;;5000437;28;20726;-65
2023/09/04 02:52:32;;;;;;;10.10;6.70;;;16.90;99.90;;;;;;4986903;28;20493;-65
2023/09/04 02:54:59;;;;;;;10.20;5.87;;;16.90;99.90;;;;;;5001596;28;20475;-65
2023/09/04 02:57:26;;;;;;;10.23;6.10;;;16.90;99.90;;;;;;4988142;28;20481;-65
2023/09/04 02:59:53;;;;;;;10.90;6.53;;;16.80;99.90;;;;;;4989479;28;20503;-65
2023/09/04 03:02:22;;;;;;;8.37;5.60;;;16.80;99.90;;;;;;4979654;28;20493;-65
2023/09/04 03:04:53;;;;;;;6.93;4.63;;;16.80;99.90;;;;;;5012799;28;20489;-65
2023/09/04 03:07:20;;;;;;;10.17;5.20;;;16.70;99.90;;;;;;4990959;28;20896;-66
2023/09/04 03:09:47;;;;;;;7.17;4.47;;;16.70;99.90;;;;;;4990067;28;20484;-65
2023/09/04 03:12:14;;;;;;;10.77;4.53;;;16.70;99.90;;;;;;4985133;28;20477;-67
2023/09/04 03:14:41;;;;;;;10.40;5.33;;;16.70;99.90;;;;;;4996900;28;20555;-67
2023/09/04 03:17:08;;;;;;;6.87;4.20;;;16.70;99.90;;;;;;4986136;28;20477;-67
2023/09/04 03:19:36;;;;;;;7.60;3.63;;;16.70;99.90;;;;;;4987625;28;21143;-67
2023/09/04 03:22:02;;;;;;;8.10;4.60;;;16.70;99.90;;;;;;4989734;28;20481;-67
2023/09/04 03:24:29;;;;;;;15.60;5.13;;;16.70;99.90;;;;;;4988800;28;20481;-67
2023/09/04 03:26:56;;;;;;;8.10;5.20;;;16.60;99.90;;;;;;4990014;28;20487;-67
2023/09/04 03:29:24;;;;;;;8.23;4.77;;;16.60;99.90;;;;;;4988161;28;20927;-67
2023/09/04 03:31:51;;;;;;;7.50;5.40;;;16.60;99.90;;;;;;4988087;28;20505;-66
2023/09/04 03:34:18;;;;;;;12.07;5.87;;;16.60;99.90;;;;;;4994589;28;20473;-67
2023/09/04 03:36:47;;;;;;;10.07;6.07;;;16.60;99.90;;;;;;4982764;28;21000;-66
2023/09/04 03:39:14;;;;;;;7.63;5.17;;;16.70;99.90;;;;;;4993507;28;20496;-67
2023/09/04 03:41:40;;;;;;;10.17;5.83;;;16.60;99.90;;;;;;4991398;28;20745;-67
2023/09/04 03:44:07;;;;;;;7.87;5.33;;;16.60;99.90;;;;;;5002683;28;20993;-67
2023/09/04 03:46:34;;;;;;;11.50;5.67;;;16.50;99.90;;;;;;4985794;28;20472;-67
2023/09/04 03:49:01;;;;;;;9.60;6.13;;;16.50;99.90;;;;;;4992012;28;20474;-67
2023/09/04 03:51:28;;;;;;;8.23;5.60;;;16.50;99.90;;;;;;4990097;28;20828;-67
2023/09/04 03:54:01;;;;;;;7.40;5.40;;;16.40;99.90;;;;;;4988103;28;20481;-67
2023/09/04 03:56:28;;;;;;;7.40;4.70;;;16.40;99.90;;;;;;4992200;28;21282;-67
2023/09/04 03:58:55;;;;;;;5.87;4.97;;;16.40;99.90;;;;;;4983164;28;20489;-66
2023/09/04 04:01:23;;;;;;;7.90;5.80;;;16.30;99.90;;;;;;4993079;28;20483;-66
2023/09/04 04:03:50;;;;;;;11.13;5.53;;;16.30;99.90;;;;;;4994720;28;20501;-66
2023/09/04 04:06:17;;;;;;;10.00;5.40;;;16.30;99.90;;;;;;4992122;28;20898;-66
2023/09/04 04:08:45;;;;;;;8.43;5.73;;;16.20;99.90;;;;;;4991768;28;20480;-67
2023/09/04 04:11:13;;;;;;;8.43;6.00;;;16.20;99.90;;;;;;4974527;28;20474;-67
2023/09/04 04:13:40;;;;;;;10.43;5.27;;;16.20;99.90;;;;;;4977462;28;20540;-66
2023/09/04 04:16:07;;;;;;;10.50;6.93;;;16.20;99.90;;;;;;4990104;28;21683;-66
2023/09/04 04:18:33;;;;;;;9.30;5.90;;;16.20;99.90;;;;;;4999572;28;20473;-66
2023/09/04 04:21:00;;;;;;;9.50;5.83;;;16.20;99.90;;;;;;4989497;28;21000;-65
2023/09/04 04:23:27;;;;;;;9.40;5.57;;;16.10;99.90;;;;;;4977785;28;20494;-65
2023/09/04 04:25:54;;;;;;;12.23;6.30;;;16.10;99.90;;;;;;4998957;28;20906;-65
2023/09/04 04:28:23;;;;;;;8.03;4.83;;;16.10;99.90;;;;;;4986991;28;20475;-65
2023/09/04 04:30:50;;;;;;;8.17;6.00;;;16.10;99.90;;;;;;4990369;28;20473;-66
2023/09/04 04:33:17;;;;;;;5.20;4.60;;;16.10;99.90;;;;;;4987144;28;20466;-66
2023/09/04 04:35:44;;;;;;;7.50;5.70;;;16.10;99.90;;;;;;4993130;28;20480;-66
2023/09/04 04:38:11;;;;;;;7.70;5.80;;;16.10;99.90;;;;;;4988535;28;20480;-66
2023/09/04 04:40:38;;;;;;;5.63;4.97;;;16.10;99.90;;;;;;4991050;28;20994;-66
2023/09/04 04:43:05;;;;;;;7.60;5.00;;;16.20;99.90;;;;;;4982304;28;20679;-66
2023/09/04 04:45:34;;;;;;;7.87;5.40;;;16.20;99.90;;;;;;5002113;28;20491;-66
2023/09/04 04:48:01;;;;;;;10.47;5.63;;;16.30;99.90;;;;;;4985728;28;20481;-66
2023/09/04 04:50:28;;;;;;;10.83;4.70;;;16.30;99.90;;;;;;4988850;28;20485;-66
2023/09/04 04:52:55;;;;;;;7.20;4.80;;;16.40;99.90;;;;;;4981419;28;20956;-65
2023/09/04 04:55:22;;;;;;;7.43;5.03;;;16.40;99.90;;;;;;4992695;28;20485;-65
2023/09/04 04:57:50;;;;;;;5.83;4.17;;;16.30;99.90;;;;;;4987833;28;20677;-65
2023/09/04 05:00:17;;;;;;;10.33;6.17;;;16.30;99.90;;;;;;4993647;28;20478;-65
2023/09/04 05:02:45;;;;;;;10.80;6.80;;;16.30;99.90;;;;;;4976473;28;20585;-65
2023/09/04 05:05:12;;;;;;;9.50;5.20;;;16.40;99.90;;;;;;4990742;28;20690;-65
2023/09/04 05:07:41;;;;;;;7.67;5.90;;;16.30;99.90;;;;;;4978677;28;20466;-65
2023/09/04 05:10:09;;;;;;;6.47;4.60;;;16.30;99.90;;;;;;4987421;28;20485;-65
2023/09/04 05:12:36;;;;;;;7.73;5.60;;;16.40;99.90;;;;;;4994392;28;20845;-65
2023/09/04 05:15:05;;;;;;;6.87;4.83;;;16.40;99.90;;;;;;4990384;28;20497;-65
2023/09/04 05:17:32;;;;;;;9.70;5.37;;;16.40;99.90;;;;;;4991742;28;20480;-65
2023/09/04 05:20:00;;;;;;;7.47;5.37;;;16.40;99.90;;;;;;4989680;28;20478;-65
2023/09/04 05:22:27;;;;;;;6.30;4.53;;;16.40;99.90;;;;;;4989134;28;20795;-65
2023/09/04 05:24:54;;;;;;;5.83;4.53;;;16.40;99.90;;;;;;4996065;28;20879;-65
2023/09/04 05:27:20;;;;;;;6.13;4.93;;;16.40;99.90;;;;;;4993621;28;20828;-65
2023/09/04 05:29:47;;;;;;;9.93;5.90;;;16.50;99.90;;;;;;4985909;28;20558;-65
2023/09/04 05:32:14;;;;;;;7.50;4.33;;;16.50;99.90;;;;;;4993743;28;20481;-65
2023/09/04 05:34:41;;;;;;;8.63;4.97;;;16.50;99.90;;;;;;4989487;28;20583;-65
2023/09/04 05:37:09;;;;;;;9.30;4.50;;;16.60;99.90;;;;;;5000345;28;21316;-65
2023/09/04 05:39:36;;;;;;;8.53;5.10;;;16.60;99.90;;;;;;4987472;28;20482;-65
2023/09/04 05:42:03;;;;;;;6.63;4.77;;;16.70;99.90;;;;;;4986015;28;20492;-66
2023/09/04 05:44:30;;;;;;;5.77;4.40;;;16.70;99.90;;;;;;5000316;28;20480;-64
2023/09/04 05:46:57;;;;;;;7.97;5.60;;;16.80;99.90;;;;;;4995404;28;20612;-64
2023/09/04 05:49:24;;;;;;;9.03;5.57;;;16.80;99.90;;;;;;4996164;28;20473;-64
2023/09/04 05:51:51;;;;;;;7.60;5.23;;;16.80;99.90;;;;;;4981860;28;20719;-64
2023/09/04 05:54:19;;;;;;;7.83;5.57;;;16.80;99.90;;;;;;4997890;28;20920;-64
2023/09/04 05:56:46;;;;;;;7.07;5.00;;;16.90;99.90;;;;;;4989615;28;20573;-65
2023/09/04 05:59:14;;;;;;;5.77;4.60;;;16.90;99.90;;;;;;4985439;28;20483;-65
2023/09/04 06:01:41;;;;;;;7.50;5.27;;;17.10;99.90;;;;;;4986273;28;20953;-65
2023/09/04 06:04:08;;;;;;;7.50;4.97;;;17.20;99.90;;;;;;4981941;28;20486;-65
2023/09/04 06:06:35;;;;;;;6.57;4.57;;;17.30;99.90;;;;;;4988243;28;20481;-65
2023/09/04 06:09:01;;;;;;;7.37;4.97;;;17.40;99.90;;;;;;4985204;28;20485;-65
2023/09/04 06:11:30;;;;;;;7.50;5.37;;;17.40;99.90;;;;;;4989749;28;20485;-66
2023/09/04 06:13:56;;;;;;;8.10;5.60;;;17.40;99.90;;;;;;4987137;28;20481;-66
2023/09/04 06:16:23;;;;;;;6.00;4.70;;;17.50;99.90;;;;;;4991137;28;20897;-66
2023/09/04 06:18:50;;;;;;;7.10;5.40;;;17.60;99.90;;;;;;4988707;28;20478;-66
2023/09/04 06:21:17;;;;;;;8.40;6.40;;;17.60;99.90;;;;;;4993736;28;20481;-66
2023/09/04 06:23:45;;;;;;;6.43;5.20;;;17.70;99.90;;;;;;4995495;28;20479;-66
2023/09/04 06:26:12;;;;;;;6.57;5.00;;;17.80;99.90;;;;;;4993539;28;20485;-66
2023/09/04 06:28:40;;;;;;;5.90;4.90;;;18.00;99.90;;;;;;4990431;28;20485;-66
2023/09/04 06:31:08;;;;;;;5.23;4.57;;;18.10;99.90;;;;;;4989837;28;21159;-66
2023/09/04 06:33:37;;;;;;;7.10;5.67;;;18.10;99.90;;;;;;4984533;28;20834;-66
2023/09/04 06:36:05;;;;;;;8.03;6.17;;;18.30;99.90;;;;;;5003716;28;20804;-66
2023/09/04 06:38:31;;;;;;;13.63;6.83;;;18.40;99.90;;;;;;4988176;28;20489;-66
2023/09/04 06:40:58;;;;;;;14.03;5.37;;;18.50;99.90;;;;;;4990584;28;21144;-66
2023/09/04 06:43:25;;;;;;;9.57;6.20;;;18.90;99.90;;;;;;4993517;28;20482;-66
2023/09/04 06:45:54;;;;;;;9.23;7.33;;;19.50;99.90;;;;;;4997393;28;20478;-66
2023/09/04 06:48:21;;;;;;;7.63;5.80;;;20.50;99.90;;;;;;5003923;28;20480;-66
2023/09/04 06:50:50;;;;;;;10.70;5.00;;;21.40;99.90;;;;;;4993284;28;21216;-66
2023/09/04 06:53:17;;;;;;;5.10;4.47;;;22.20;99.90;;;;;;4993288;28;20492;-66
2023/09/04 06:55:45;;;;;;;5.10;4.60;;;23.00;99.30;;;;;;4983661;28;20589;-66
2023/09/04 06:58:12;;;;;;;5.50;4.17;;;23.70;98.60;;;;;;5005817;28;20489;-67
2023/09/04 07:00:38;;;;;;;5.80;4.70;;;24.30;98.00;;;;;;4981412;28;20511;-66
2023/09/04 07:03:07;;;;;;;5.40;4.60;;;24.90;97.30;;;;;;4990488;28;20524;-66
2023/09/04 07:05:33;;;;;;;5.67;4.13;;;25.30;96.50;;;;;;4983459;28;20487;-66
2023/09/04 07:08:00;;;;;;;7.00;4.60;;;25.70;96.10;;;;;;4985003;28;20569;-66
2023/09/04 07:10:27;;;;;;;6.07;4.03;;;26.00;95.80;;;;;;4984229;28;20453;-66
2023/09/04 07:12:54;;;;;;;4.27;3.87;;;26.20;95.30;;;;;;4998647;28;20465;-66
2023/09/04 07:15:21;;;;;;;5.47;4.60;;;26.40;95.00;;;;;;4996371;28;20487;-67
2023/09/04 07:17:48;;;;;;;4.17;3.60;;;26.40;95.10;;;;;;4983877;28;21178;-66
2023/09/04 07:20:20;;;;;;;4.50;3.83;;;26.50;94.80;;;;;;4979204;28;20500;-66
2023/09/04 07:22:47;;;;;;;6.67;3.90;;;26.50;94.30;;;;;;4979492;28;21097;-66
2023/09/04 07:25:14;;;;;;;5.57;4.00;;;26.50;94.20;;;;;;5005952;28;20994;-66
2023/09/04 07:27:41;;;;;;;5.27;4.37;;;26.40;94.20;;;;;;4992209;28;20481;-66
2023/09/04 07:30:09;;;;;;;4.00;3.47;;;26.40;94.50;;;;;;4981234;28;20487;-66
2023/09/04 07:32:35;;;;;;;6.10;4.23;;;26.40;94.40;;;;;;4992496;28;20848;-66
2023/09/04 07:35:03;;;;;;;6.17;3.67;;;26.40;94.60;;;;;;4992721;28;20580;-66
2023/09/04 07:37:32;;;;;;;5.87;4.13;;;26.30;94.20;;;;;;4994941;28;20455;-66
2023/09/04 07:39:58;;;;;;;4.10;3.50;;;26.20;94.30;;;;;;4994806;28;20556;-67
2023/09/04 07:42:27;;;;;;;4.43;3.63;;;26.10;94.40;;;;;;4989128;28;20678;-65
2023/09/04 07:44:54;;;;;;;5.87;4.40;;;26.00;95.10;;;;;;4989643;28;20453;-65
2023/09/04 07:47:21;;;;;;;4.20;3.73;;;25.90;94.20;;;;;;4989781;28;20482;-65
2023/09/04 07:49:48;;;;;;;3.83;3.40;;;25.70;94.50;;;;;;4990249;28;20471;-65
2023/09/04 07:52:15;;;;;;;4.53;3.80;;;25.60;94.60;;;;;;4987657;28;20563;-67
2023/09/04 07:54:44;;;;;;;4.50;3.90;;;25.70;95.00;;;;;;4988718;28;20484;-67
2023/09/04 07:57:12;;;;;;;4.13;3.70;;;25.70;95.00;;;;;;4990662;28;21288;-67
2023/09/04 07:59:39;;;;;;;4.27;3.40;;;25.70;94.70;;;;;;4990315;28;20763;-67
2023/09/04 08:02:06;;;;;;;4.07;3.67;;;25.70;95.70;;;;;;4978953;28;21953;-67
2023/09/04 08:04:33;;;;;;;4.10;3.43;;;25.70;95.20;;;;;;4987085;28;20465;-67
2023/09/04 08:07:00;;;;;;;3.73;3.17;;;25.70;94.10;;;;;;4980001;28;20492;-67
2023/09/04 08:09:27;;;;;;;4.17;3.80;;;25.80;95.60;;;;;;5007141;28;20456;-67
2023/09/04 08:11:55;;;;;;;3.53;3.03;;;25.90;95.60;;;;;;4984020;28;22268;-67
2023/09/04 08:14:22;;;;;;;4.73;3.80;;;25.90;95.00;;;;;;4984482;28;20481;-67
2023/09/04 08:16:49;;;;;;;3.27;2.97;;;26.00;95.40;;;;;;4988268;28;20981;-67
2023/09/04 08:19:15;;;;;;;5.07;4.20;;;26.10;94.50;;;;;;4994424;28;20483;-67
2023/09/04 08:21:42;;;;;;;4.93;4.33;;;26.20;95.10;;;;;;4983397;28;20492;-68
2023/09/04 08:24:09;;;;;;;4.40;4.00;;;26.10;94.30;;;;;;4984264;28;20487;-67
2023/09/04 08:26:36;;;;;;;4.47;3.63;;;26.20;94.60;;;;;;5007137;28;20459;-67
2023/09/04 08:29:04;;;;;;;4.60;3.60;;;26.30;95.10;;;;;;4985193;28;20481;-67
2023/09/04 08:31:32;;;;;;;5.33;4.30;;;26.40;94.80;;;;;;4986135;28;20463;-68
2023/09/04 08:33:59;;;;;;;4.50;4.07;;;26.50;94.30;;;;;;4987547;28;20565;-67
2023/09/04 08:36:26;;;;;;;4.37;3.97;;;26.60;94.30;;;;;;4994525;28;20486;-66
2023/09/04 08:38:53;;;;;;;5.50;4.10;;;26.70;94.20;;;;;;4997780;28;20477;-67
2023/09/04 08:41:22;;;;;;;3.50;3.10;;;26.80;94.20;;;;;;4982015;28;20876;-68
2023/09/04 08:43:50;;;;;;;6.60;3.43;;;27.00;93.70;;;;;;4980492;28;20985;-68
2023/09/04 08:46:21;;;;;;;4.00;3.60;;;27.00;93.40;;;;;;4999715;28;20458;-67
2023/09/04 08:48:52;;;;;;;8.10;3.37;;;27.00;93.70;;;;;;4997595;28;20490;-68
2023/09/04 08:51:19;;;;;;;4.47;2.90;;;27.00;93.10;;;;;;4989534;28;20490;-69
2023/09/04 08:53:49;;;;;;;3.17;2.67;;;26.90;92.90;;;;;;4986907;28;22132;-69
2023/09/04 08:56:17;;;;;;;2.97;2.67;;;27.00;92.20;;;;;;4993241;28;20512;-69
2023/09/04 08:58:44;;;;;;;4.83;4.00;;;27.00;92.10;;;;;;4982497;28;20883;-70
2023/09/04 09:01:12;;;;;;;2.97;2.67;;;27.00;91.70;;;;;;5014776;28;20477;-65
2023/09/04 09:03:43;;;;;;;3.10;2.80;;;27.00;92.10;;;;;;4996602;28;21022;-65
2023/09/04 09:06:10;;;;;;;4.53;3.80;;;27.10;93.70;;;;;;4996363;28;20531;-67
2023/09/04 09:08:37;;;;;;;4.60;3.97;;;27.30;92.60;;;;;;4987810;28;20923;-65
2023/09/04 09:11:04;;;;;;;3.87;3.30;;;27.40;92.00;;;;;;4997226;28;20481;-65
2023/09/04 09:13:31;;;;;;;3.90;2.90;;;27.40;91.60;;;;;;4990610;28;20440;-65
2023/09/04 09:15:58;;;;;;;3.10;2.80;;;27.50;91.80;;;;;;4990050;28;20481;-66
2023/09/04 09:18:44;;;;;;;3.33;2.80;;;27.50;90.60;;;;;;5011843;28;20493;-65
2023/09/04 09:21:24;;;;;;;3.20;2.90;;;27.50;91.50;;;;;;4976513;28;20572;-66
2023/09/04 09:24:16;;;;;;;3.80;3.37;;;27.50;91.40;;;;;;4987130;28;20459;-67
2023/09/04 09:26:44;;;;;;;6.00;2.83;;;27.50;91.10;;;;;;5000707;28;20498;-65
2023/09/04 09:29:13;;;;;;;3.53;3.00;;;27.60;91.30;;;;;;4995483;28;20746;-65
2023/09/04 09:31:42;;;;;;;3.43;3.10;;;27.70;92.20;;;;;;4990038;28;20482;-66
2023/09/04 09:34:11;;;;;;;4.90;3.30;;;27.70;91.60;;;;;;4996393;28;20484;-66
2023/09/04 09:36:38;;;;;;;4.67;2.60;;;27.70;90.70;;;;;;4994331;28;20649;-66
2023/09/04 09:39:06;;;;;;;3.20;2.90;;;27.70;90.30;;;;;;4994447;28;20485;-66
2023/09/04 09:41:35;;;;;;;4.80;3.20;;;27.80;90.20;;;;;;4995483;28;20549;-66
2023/09/04 09:44:03;;;;;;;3.70;3.40;;;27.90;91.50;;;;;;4991614;28;20948;-67
2023/09/04 09:46:31;;;;;;;3.50;3.13;;;27.90;90.10;;;;;;4996131;28;20540;-66
2023/09/04 09:48:59;;;;;;;5.60;2.43;;;28.00;88.80;;;;;;4991598;28;20488;-66
2023/09/04 09:51:28;;;;;;;3.13;2.83;;;28.00;90.20;;;;;;4980264;28;20459;-65
2023/09/04 09:53:56;;;;;;;3.10;2.80;;;28.10;90.90;;;;;;4998515;28;20508;-66
2023/09/04 09:56:24;;;;;;;3.67;2.93;;;28.20;90.20;;;;;;4992339;28;20468;-65
2023/09/04 09:58:51;;;;;;;4.43;3.23;;;28.30;90.30;;;;;;5007333;28;20482;-66
2023/09/04 10:01:19;;;;;;;2.93;2.63;;;28.50;90.10;;;;;;4985881;28;20449;-66
2023/09/04 10:03:47;;;;;;;3.40;3.10;;;28.50;88.10;;;;;;4987237;28;20476;-65
2023/09/04 10:06:17;;;;;;;2.60;1.90;;;28.60;88.50;;;;;;4988961;28;20483;-66
2023/09/04 10:08:47;;;;;;;4.03;3.27;;;28.70;88.60;;;;;;4997294;28;20448;-66
2023/09/04 10:11:16;;;;;;;4.47;3.47;;;28.70;87.30;;;;;;4992706;28;21214;-66
2023/09/04 10:13:51;;;;;;;5.00;2.60;;;28.80;88.40;;;;;;4981634;28;20467;-65
2023/09/04 10:16:28;;;;;;;3.30;3.00;;;28.80;88.00;;;;;;4993410;28;20478;-66
2023/09/04 10:18:59;;;;;;;3.03;2.73;;;28.70;86.60;;;;;;5000813;28;20482;-66
2023/09/04 10:21:30;;;;;;;3.13;2.50;;;28.70;88.60;;;;;;4982402;28;20527;-66
2023/09/04 10:24:02;;;;;;;4.23;3.23;;;28.70;87.80;;;;;;4996886;28;20942;-66
2023/09/04 10:26:35;;;;;;;3.17;2.87;;;28.80;87.60;;;;;;4991884;28;20664;-66
2023/09/04 10:29:04;;;;;;;2.90;2.57;;;28.80;86.70;;;;;;4989898;28;20498;-66
2023/09/04 10:31:34;;;;;;;3.43;3.00;;;28.90;86.80;;;;;;4989523;28;21121;-66
2023/09/04 10:34:02;;;;;;;3.77;3.40;;;28.90;84.90;;;;;;4985550;28;20492;-66
2023/09/04 10:36:30;;;;;;;3.50;2.40;;;29.00;87.10;;;;;;4993543;28;20580;-65
2023/09/04 10:39:00;;;;;;;4.03;2.80;;;29.10;88.00;;;;;;4981099;28;20554;-66
2023/09/04 10:41:29;;;;;;;2.93;2.63;;;29.20;87.40;;;;;;5005227;28;20480;-65
2023/09/04 10:43:56;;;;;;;2.67;2.30;;;29.20;89.60;;;;;;4987729;28;20473;-65
2023/09/04 10:46:23;;;;;;;3.00;2.70;;;29.20;84.80;;;;;;4993080;28;21470;-65
2023/09/04 10:48:51;;;;;;;3.90;2.30;;;29.30;85.00;;;;;;4981257;28;20478;-65
2023/09/04 10:51:29;;;;;;;5.20;3.30;;;29.40;85.80;;;;;;4979703;28;20578;-65
2023/09/04 10:53:59;;;;;;;3.07;2.47;;;29.40;83.90;;;;;;4997945;28;20478;-65
2023/09/04 10:56:26;;;;;;;3.70;2.97;;;29.30;82.00;;;;;;4989793;28;20457;-66
2023/09/04 10:58:59;;;;;;;3.73;2.50;;;29.30;83.20;;;;;;4986488;28;20989;-66
2023/09/04 11:01:33;;;;;;;2.97;2.30;;;29.20;80.50;;;;;;4984884;28;20996;-66
2023/09/04 11:04:02;;;;;;;3.00;2.67;;;29.30;83.20;;;;;;4989439;28;20484;-66
2023/09/04 11:06:29;;;;;;;3.87;3.00;;;29.30;79.60;;;;;;4993371;28;20810;-68
2023/09/04 11:08:56;;;;;;;2.47;2.07;;;29.30;80.90;;;;;;4993342;28;20475;-66
2023/09/04 11:11:27;;;;;;;2.90;2.40;;;29.30;80.70;;;;;;4988381;28;20587;-67
2023/09/04 11:14:02;;;;;;;3.33;2.50;;;29.30;78.50;;;;;;4983161;28;20461;-66
2023/09/04 11:16:36;;;;;;;5.07;2.70;;;29.30;79.70;;;;;;4995017;28;20543;-67
2023/09/04 11:19:06;;;;;;;3.10;2.80;;;29.30;80.10;;;;;;4990384;28;20456;-66
2023/09/04 11:21:35;;;;;;;4.93;3.40;;;29.50;81.50;;;;;;5002646;28;20475;-68
2023/09/04 11:24:04;;;;;;;2.83;2.63;;;29.50;80.90;;;;;;4981201;28;20769;-67
2023/09/04 11:26:32;;;;;;;6.17;3.70;;;29.50;79.40;;;;;;4985729;28;20813;-66
2023/09/04 11:29:00;;;;;;;4.60;3.10;;;29.30;78.50;;;;;;5001838;28;20465;-67
2023/09/04 11:31:28;;;;;;;2.90;2.67;;;29.30;78.00;;;;;;4985228;28;21148;-68
2023/09/04 11:33:56;;;;;;;4.00;3.57;;;29.20;78.70;;;;;;4983901;28;20888;-70
2023/09/04 11:36:24;;;;;;;3.97;2.87;;;29.20;81.30;;;;;;4992171;28;20492;-67
2023/09/04 11:39:03;;;;;;;2.80;2.60;;;29.40;80.00;;;;;;4998041;28;20486;-68
2023/09/04 11:41:32;;;;;;;2.97;2.77;;;29.50;80.80;;;;;;4981939;28;21133;-70
2023/09/04 11:43:59;;;;;;;2.73;2.40;;;29.40;78.40;;;;;;4985219;28;20494;-70
2023/09/04 11:46:27;;;;;;;3.83;3.27;;;29.40;80.70;;;;;;4991158;28;20477;-70
2023/09/04 11:48:54;;;;;;;3.80;2.90;;;29.50;81.30;;;;;;4988693;28;20453;-69
2023/09/04 11:51:21;;;;;;;6.40;3.03;;;29.40;77.60;;;;;;4987368;28;20449;-69
2023/09/04 11:53:48;;;;;;;2.87;2.30;;;29.40;79.30;;;;;;4982781;28;20465;-68
2023/09/04 11:56:15;;;;;;;3.53;2.77;;;29.70;81.60;;;;;;5000219;28;20789;-71
2023/09/04 11:58:43;;;;;;;5.40;2.97;;;29.80;81.00;;;;;;4994606;28;20474;-70
2023/09/04 12:01:10;;;;;;;3.37;2.73;;;29.90;83.40;;;;;;4982524;28;20452;-69
2023/09/04 12:03:37;;;;;;;4.30;3.10;;;29.90;80.20;;;;;;4982723;28;20486;-70
2023/09/04 12:06:04;;;;;;;3.00;2.57;;;30.00;80.50;;;;;;4991695;28;20487;-69
2023/09/04 12:08:31;;;;;;;4.27;3.47;;;29.80;80.20;;;;;;4986356;28;20464;-69
2023/09/04 12:10:58;;;;;;;4.53;3.40;;;29.90;82.10;;;;;;4979347;28;20484;-68
2023/09/04 12:13:26;;;;;;;3.53;3.23;;;30.00;81.90;;;;;;4994526;28;20469;-69
2023/09/04 12:16:05;;;;;;;3.20;2.90;;;30.10;83.00;;;;;;4997787;28;20453;-67
2023/09/04 12:18:35;;;;;;;3.23;2.83;;;30.30;83.00;;;;;;4986703;28;20499;-68
2023/09/04 12:21:06;;;;;;;4.23;3.40;;;30.30;81.70;;;;;;4992618;28;20494;-69
2023/09/04 12:23:43;;;;;;;3.40;3.10;;;30.30;85.00;;;;;;4992392;28;20483;-69
2023/09/04 12:26:11;;;;;;;5.37;4.03;;;30.50;83.50;;;;;;4998464;28;20558;-69
2023/09/04 12:28:38;;;;;;;2.90;2.67;;;30.60;82.80;;;;;;4989883;28;20510;-68
2023/09/04 12:31:08;;;;;;;7.80;4.30;;;30.60;81.90;;;;;;4981575;28;20674;-69
2023/09/04 12:33:39;;;;;;;3.90;2.87;;;30.70;80.60;;;;;;4983563;28;20945;-69
2023/09/04 12:36:09;;;;;;;3.73;3.40;;;30.70;81.80;;;;;;4996932;28;20511;-68
2023/09/04 12:38:36;;;;;;;3.03;2.63;;;30.70;82.40;;;;;;4989286;28;21332;-69
2023/09/04 12:41:04;;;;;;;3.70;3.20;;;30.70;82.30;;;;;;4993580;28;20484;-66
2023/09/04 12:43:31;;;;;;;3.37;2.70;;;30.60;81.70;;;;;;4999486;28;21158;-66
2023/09/04 12:45:58;;;;;;;4.03;3.60;;;30.60;80.50;;;;;;4974747;28;20477;-66
2023/09/04 12:48:26;;;;;;;3.20;2.90;;;30.70;80.40;;;;;;4981679;28;20453;-66